Flight Track Log - Related Links

Times and Time Zones

All times are in EDT time to prevent confusion due to time zone crossing. See the N680AN flight status page for this flight to view local times or setup timezone preferences in your user account.

Time Position Orientation Groundspeed Altitude Reporting Facility
EDT Latitude Longitude Course Direction KTS MPH feet Rate Location/Type
Mon 12:25:03 PM 42.3667 -70.9833 198° South 168 193 800  Level KA90
Mon 12:25:57 PM 42.3667 -70.9167 90° East 184 212 3,100 2,211 Climbing KA90
Mon 12:26:57 PM 42.3833 -70.8333 75° East 233 268 5,000 2,087 Climbing KA90
Mon 12:27:00 PM 42.3574 -70.7129 164° South  Level FlightAware Approximate
Mon 12:28:00 PM 42.2585 -70.6626 160° South  Level FlightAware Approximate
Mon 12:28:15 PM 42.3772 -70.7342 95° East 273 314 7,900  Level Boston Center
Mon 12:29:00 PM 42.1584 -70.6125 160° South  Level FlightAware Approximate
Mon 12:29:15 PM 42.3161 -70.6936 154° Southeast 216 249 10,700  Level Boston Center
Mon 12:30:00 PM 42.0577 -70.6348 198° South  Level FlightAware Approximate
Mon 12:30:15 PM 42.2322 -70.6539 161° South 242 278 12,000  Level Boston Center
Mon 12:31:15 PM 42.1336 -70.6203 166° South 309 356 13,900 1,550 Climbing Boston Center
Mon 12:32:15 PM 42.0322 -70.6625 197° South 345 397 15,100 1,650 Climbing Boston Center
Mon 12:33:15 PM 41.9514 -70.6983 198° South 364 419 17,200 2,350 Climbing Boston Center
Mon 12:34:15 PM 41.8231 -70.7603 200° South 391 450 19,800 2,350 Climbing Boston Center
Mon 12:35:15 PM 41.7261 -70.8294 208° Southwest 407 468 21,900 2,250 Climbing Boston Center
Mon 12:36:15 PM 41.6189 -70.9183 212° Southwest 412 474 24,300 2,300 Climbing Boston Center
Mon 12:37:15 PM 41.5264 -71.0067 216° Southwest 417 480 26,500 2,200 Climbing Boston Center
Mon 12:38:15 PM 41.4569 -71.1189 230° Southwest 391 450 28,700 1,800 Climbing Boston Center
Mon 12:39:15 PM 41.3933 -71.2225 231° Southwest 391 450 30,100 1,600 Climbing Boston Center
Mon 12:40:15 PM 41.3300 -71.3233 230° Southwest 378 435 31,900 950 Climbing Boston Center
Mon 12:41:15 PM 41.2725 -71.4211 232° Southwest 354 407 32,000 300 Climbing Boston Center
Mon 12:42:15 PM 41.2108 -71.5158 229° Southwest 349 402 32,500 1,100 Climbing Boston Center
Mon 12:43:15 PM 41.1594 -71.5964 230° Southwest 343 395 34,200 1,550 Climbing Boston Center
Mon 12:44:15 PM 41.1225 -71.7072 246° West 331 381 35,600 900 Climbing Boston Center
Mon 12:45:15 PM 41.0836 -71.8150 244° Southwest 326 375 36,000 200 Climbing Boston Center
Mon 12:46:15 PM 41.0319 -71.9144 235° Southwest 326 375 36,000  Level Boston Center
Mon 12:47:15 PM 40.9617 -72.0142 227° Southwest 338 389 36,000  Level Boston Center
Mon 12:48:15 PM 40.8931 -72.0969 222° Southwest 338 389 36,000  Level Boston Center
Mon 12:49:15 PM 40.8247 -72.1850 224° Southwest 338 389 36,000  Level Boston Center
Mon 12:50:15 PM 40.7581 -72.2675 223° Southwest 338 389 36,000  Level Boston Center
Mon 12:51:15 PM 40.6956 -72.3389 221° Southwest 338 389 36,000  Level Boston Center
Mon 12:52:15 PM 40.6417 -72.4072 224° Southwest 338 389 36,000  Level Boston Center
Mon 12:53:15 PM 40.5603 -72.5083 223° Southwest 343 395 36,000  Level Boston Center
Mon 12:54:15 PM 40.4936 -72.5903 223° Southwest 338 389 36,000  Level Boston Center
Mon 12:55:15 PM 40.4247 -72.6744 223° Southwest 338 389 36,000  Level Boston Center
Mon 12:56:15 PM 40.3597 -72.7586 225° Southwest 338 389 36,000  Level Boston Center
Mon 12:57:15 PM 40.2886 -72.8400 221° Southwest 338 389 36,000  Level Boston Center
Mon 12:58:15 PM 40.2239 -72.9239 225° Southwest 338 389 36,000  Level Boston Center
Mon 12:59:15 PM 40.1503 -73.0183 224° Southwest 338 389 36,000  Level Boston Center
Mon 01:00:55 PM 40.0447 -73.1497 224° Southwest 316 364 36,000  Level Washington Center
Mon 01:01:55 PM 39.9736 -73.2308 221° Southwest 329 379 36,000  Level Washington Center
Mon 01:02:55 PM 39.9064 -73.3167 224° Southwest 329 379 36,000  Level Washington Center
Mon 01:03:55 PM 39.8269 -73.4083 222° Southwest 341 392 36,000  Level Washington Center
Mon 01:04:55 PM 39.7575 -73.4917 223° Southwest 341 392 36,000  Level Washington Center
Mon 01:05:55 PM 39.6881 -73.5744 223° Southwest 347 399 36,000  Level Washington Center
Mon 01:06:55 PM 39.6144 -73.6600 222° Southwest 352 405 36,000  Level Washington Center
Mon 01:07:55 PM 39.5472 -73.7453 224° Southwest 352 405 36,000  Level Washington Center
Mon 01:08:55 PM 39.4756 -73.8306 223° Southwest 352 405 36,000  Level Washington Center
Mon 01:09:55 PM 39.4036 -73.9128 221° Southwest 352 405 36,000  Level Washington Center
Mon 01:10:55 PM 39.3483 -73.9814 224° Southwest 352 405 36,000  Level Washington Center
Mon 01:11:55 PM 39.2703 -74.0742 223° Southwest 352 405 36,000  Level Washington Center
Mon 01:12:55 PM 39.1983 -74.1561 221° Southwest 352 405 36,000  Level Washington Center
Mon 01:13:55 PM 39.1286 -74.2431 224° Southwest 352 405 36,000  Level Washington Center
Mon 01:14:55 PM 39.0567 -74.3247 221° Southwest 352 405 36,000  Level Washington Center
Mon 01:15:55 PM 38.9864 -74.4058 222° Southwest 352 405 36,000  Level Washington Center
Mon 01:16:55 PM 38.9144 -74.4897 222° Southwest 352 405 36,000  Level Washington Center
Mon 01:17:55 PM 38.8442 -74.5736 223° Southwest 352 405 36,000  Level Washington Center
Mon 01:18:55 PM 38.7678 -74.6597 221° Southwest 358 412 36,000  Level Washington Center
Mon 01:19:55 PM 38.6956 -74.7406 221° Southwest 358 412 36,000  Level Washington Center
Mon 01:20:55 PM 38.6231 -74.8236 222° Southwest 358 412 36,000  Level Washington Center
Mon 01:21:55 PM 38.5486 -74.9042 220° Southwest 358 412 36,000  Level Washington Center
Mon 01:22:55 PM 38.4761 -74.9925 224° Southwest 358 412 36,000  Level Washington Center
Mon 01:23:55 PM 38.4056 -75.0697 221° Southwest 358 412 36,000  Level Washington Center
Mon 01:24:55 PM 38.3308 -75.1603 224° Southwest 358 412 36,000  Level Washington Center
Mon 01:25:55 PM 38.2581 -75.2400 221° Southwest 358 412 36,000  Level Washington Center
Mon 01:26:55 PM 38.1853 -75.3275 223° Southwest 363 418 36,000  Level Washington Center
Mon 01:27:55 PM 38.1125 -75.4122 222° Southwest 363 418 36,000  Level Washington Center
Mon 01:28:55 PM 38.0397 -75.4758 215° Southwest 363 418 36,000  Level Washington Center
Mon 01:29:55 PM 37.9478 -75.5286 204° Southwest 368 423 36,000  Level Washington Center
Mon 01:30:55 PM 37.8417 -75.5944 206° Southwest 363 418 36,000  Level Washington Center
Mon 01:31:55 PM 37.7519 -75.6497 206° Southwest 363 418 36,000  Level Washington Center
Mon 01:32:55 PM 37.6706 -75.6967 205° Southwest 363 418 36,000  Level Washington Center
Mon 01:33:55 PM 37.5725 -75.7594 207° Southwest 363 418 36,000  Level Washington Center
Mon 01:34:55 PM 37.4806 -75.8117 204° Southwest 363 418 36,000  Level Washington Center
Mon 01:35:55 PM 37.3908 -75.8636 205° Southwest 363 418 36,000  Level Washington Center
Mon 01:36:55 PM 37.3008 -75.9183 206° Southwest 363 418 36,000  Level Washington Center
Mon 01:37:55 PM 37.2111 -75.9700 205° Southwest 363 418 36,000  Level Washington Center
Mon 01:38:55 PM 37.1211 -76.0242 206° Southwest 363 418 36,000  Level Washington Center
Mon 01:39:55 PM 37.0333 -76.0783 206° Southwest 363 418 36,000  Level Washington Center
Mon 01:40:55 PM 36.9456 -76.1219 202° Southwest 368 423 36,000  Level Washington Center
Mon 01:41:55 PM 36.8536 -76.1733 204° Southwest 368 423 36,000  Level Washington Center
Mon 01:42:55 PM 36.7636 -76.2272 206° Southwest 368 423 36,000  Level Washington Center
Mon 01:43:55 PM 36.6653 -76.2858 206° Southwest 358 412 36,000  Level Washington Center
Mon 01:44:55 PM 36.5753 -76.3369 205° Southwest 358 412 36,000  Level Washington Center
Mon 01:45:55 PM 36.4831 -76.3903 205° Southwest 363 418 36,000  Level Washington Center
Mon 01:46:55 PM 36.3931 -76.4408 204° Southwest 363 418 36,000  Level Washington Center
Mon 01:47:55 PM 36.3008 -76.4939 205° Southwest 363 418 36,000  Level Washington Center
Mon 01:48:55 PM 36.2086 -76.5444 204° Southwest 363 418 36,000  Level Washington Center
Mon 01:49:55 PM 36.1183 -76.5947 204° Southwest 363 418 36,000  Level Washington Center
Mon 01:51:00 PM 36.0109 -76.6466 201° Southwest  Level FlightAware Approximate
Mon 01:51:55 PM 35.9339 -76.7003 201° Southwest 363 418 36,000  Level Washington Center
Mon 01:52:55 PM 35.8417 -76.7528 205° Southwest 363 418 36,000  Level Washington Center
Mon 01:53:55 PM 35.7494 -76.8025 204° Southwest 363 418 36,000  Level Washington Center
Mon 01:54:55 PM 35.6569 -76.8497 203° Southwest 363 418 36,000  Level Washington Center
Mon 01:55:55 PM 35.5772 -76.8994 207° Southwest 358 412 36,000  Level Washington Center
Mon 01:56:55 PM 35.4806 -76.9517 204° Southwest 365 420 36,000  Level Washington Center
Mon 01:57:55 PM 35.3883 -77.0036 205° Southwest 365 420 36,000  Level Washington Center
Mon 01:58:55 PM 35.2958 -77.0553 205° Southwest 371 427 36,000  Level Washington Center
Mon 01:59:55 PM 35.2014 -77.1069 204° Southwest 371 427 36,000  Level Washington Center
Mon 02:00:55 PM 35.1089 -77.1586 205° Southwest 371 427 36,000  Level Washington Center
Mon 02:01:55 PM 35.0142 -77.2100 204° Southwest 371 427 36,000  Level Washington Center
Mon 02:02:55 PM 34.9156 -77.2586 202° Southwest 371 427 36,000  Level Washington Center
Mon 02:03:55 PM 34.8064 -77.3019 198° South 381 438 36,000  Level Washington Center
Mon 02:04:55 PM 34.7036 -77.3378 196° South 381 438 36,000  Level Washington Center
Mon 02:05:55 PM 34.6050 -77.3761 198° South 381 438 36,000  Level Washington Center
Mon 02:06:55 PM 34.5003 -77.4117 196° South 381 438 36,000  Level Washington Center
Mon 02:07:55 PM 34.3994 -77.4497 197° South 381 438 36,000  Level Washington Center
Mon 02:08:55 PM 34.2989 -77.4825 195° South 381 438 36,000  Level Washington Center
Mon 02:09:55 PM 34.1939 -77.5203 197° South 381 438 36,000  Level Washington Center
Mon 02:10:55 PM 34.0911 -77.5531 195° South 381 438 36,000  Level Washington Center
Mon 02:11:32 PM 34.0247 -77.5733 194° South 383 441 36,000  Level Jacksonville Center
Mon 02:12:32 PM 33.9303 -77.6092 197° South 372 428 36,000  Level Jacksonville Center
Mon 02:13:32 PM 33.8272 -77.6403 194° South 377 434 36,000  Level Jacksonville Center
Mon 02:14:32 PM 33.7206 -77.6817 198° South 387 445 36,000  Level Jacksonville Center
Mon 02:15:32 PM 33.6031 -77.7211 196° South 398 458 36,000  Level Jacksonville Center
Mon 02:16:32 PM 33.4961 -77.7572 196° South 398 458 36,000  Level Jacksonville Center
Mon 02:17:32 PM 33.4014 -77.7900 196° South 393 452 36,000  Level Jacksonville Center
Mon 02:18:32 PM 33.2964 -77.8233 195° South 393 452 36,000  Level Jacksonville Center
Mon 02:19:32 PM 33.1894 -77.8617 197° South 393 452 36,000  Level Jacksonville Center
Mon 02:20:32 PM 33.0822 -77.8950 195° South 393 452 36,000  Level Jacksonville Center
Mon 02:21:32 PM 32.9772 -77.9306 196° South 393 452 36,000  Level Jacksonville Center
Mon 02:22:32 PM 32.8700 -77.9661 196° South 393 452 36,000  Level Jacksonville Center
Mon 02:23:32 PM 32.7631 -78.0017 196° South 393 452 36,000  Level Jacksonville Center
Mon 02:24:32 PM 32.6578 -78.0369 196° South 393 452 36,000  Level Jacksonville Center
Mon 02:25:32 PM 32.5508 -78.0747 197° South 393 452 36,000  Level Jacksonville Center
Mon 02:26:32 PM 32.4436 -78.1100 196° South 393 452 36,000  Level Jacksonville Center
Mon 02:27:32 PM 32.3364 -78.1425 194° South 393 452 36,000  Level Jacksonville Center
Mon 02:28:32 PM 32.2292 -78.1800 196° South 393 452 36,000  Level Jacksonville Center
Mon 02:29:32 PM 32.1200 -78.2200 197° South 393 452 36,000  Level Jacksonville Center
Mon 02:30:32 PM 32.0003 -78.2578 195° South 407 468 36,000  Level Jacksonville Center
Mon 02:31:32 PM 31.9014 -78.2922 196° South 407 468 36,000  Level Jacksonville Center
Mon 02:32:32 PM 31.7919 -78.3269 195° South 413 475 36,000  Level Jacksonville Center
Mon 02:33:32 PM 31.6806 -78.3642 196° South 413 475 36,000  Level Jacksonville Center
Mon 02:34:32 PM 31.5692 -78.3964 194° South 413 475 36,000  Level Jacksonville Center
Mon 02:35:32 PM 31.4556 -78.4336 196° South 413 475 36,000  Level Jacksonville Center
Mon 02:36:32 PM 31.3442 -78.4731 197° South 413 475 36,000  Level Jacksonville Center
Mon 02:37:32 PM 31.2347 -78.5072 195° South 413 475 36,000  Level Jacksonville Center
Mon 02:38:32 PM 31.1253 -78.5439 196° South 418 481 36,000  Level Jacksonville Center
Mon 02:39:32 PM 30.9992 -78.5789 193° South 419 482 36,000  Level Jacksonville Center
Mon 02:40:32 PM 30.8919 -78.6175 197° South 417 480 36,000  Level Jacksonville Center
Mon 02:41:32 PM 30.7825 -78.6539 196° South 429 494 36,000  Level Jacksonville Center
Mon 02:42:32 PM 30.6711 -78.6881 195° South 410 472 36,000  Level Jacksonville Center
Mon 02:43:15 PM 30.6019 -78.7036 191° South 409 471 36,000  Level Miami Center
Mon 02:44:15 PM 30.4911 -78.7256 190° South 415 478 36,000  Level Miami Center
Mon 02:45:15 PM 30.3783 -78.7453 189° South 415 478 36,000  Level Miami Center
Mon 02:46:15 PM 30.2614 -78.7719 191° South 420 483 36,000  Level Miami Center
Mon 02:47:15 PM 30.1506 -78.7942 190° South 427 491 36,000  Level Miami Center
Mon 02:48:16 PM 30.0333 -78.8183 190° South 427 491 36,000  Level Miami Center
Mon 02:49:16 PM 29.9206 -78.8475 193° South 427 491 36,000  Level Miami Center
Mon 02:50:15 PM 29.8053 -78.8764 192° South 419 482 36,000  Level Miami Center
Mon 02:51:16 PM 29.6861 -78.8956 188° South 434 499 36,000  Level Miami Center
Mon 02:52:15 PM 29.5689 -78.9244 192° South 434 499 36,000  Level Miami Center
Mon 02:53:15 PM 29.4414 -78.9436 187° South 434 499 36,000  Level Miami Center
Mon 02:54:15 PM 29.3203 -78.9675 190° South 441 507 36,000  Level Miami Center
Mon 02:55:15 PM 29.2008 -78.9936 191° South 446 513 36,000  Level Miami Center
Mon 02:56:15 PM 29.0775 -79.0172 189° South 452 520 36,000  Level Miami Center
Mon 02:57:15 PM 28.9519 -79.0411 189° South 452 520 36,000  Level Miami Center
Mon 02:58:15 PM 28.8325 -79.0669 191° South 452 520 36,000  Level Miami Center
Mon 02:59:15 PM 28.7133 -79.0908 190° South 452 520 36,000  Level Miami Center
Mon 03:00:15 PM 28.5917 -79.1167 191° South 447 514 36,000  Level Miami Center
Mon 03:01:15 PM 28.4683 -79.1403 190° South 447 514 36,000  Level Miami Center
Mon 03:02:15 PM 28.3469 -79.1636 190° South 447 514 36,000  Level Miami Center
Mon 03:03:15 PM 28.2253 -79.1872 190° South 447 514 36,000 -450 Level Miami Center
Mon 03:04:15 PM 28.1039 -79.2128 191° South 447 514 35,100 -1,190 Descending Miami Center
Mon 03:05:16 PM 27.9783 -79.2383 190° South 447 514 33,600 -1,550 Descending Miami Center
Mon 03:06:15 PM 27.8464 -79.2639 190° South 447 514 32,000 -2,118 Descending Miami Center
Mon 03:07:15 PM 27.7331 -79.2872 190° South 453 521 29,400 -2,500 Descending Miami Center
Mon 03:08:15 PM 27.6094 -79.3128 190° South 448 516 27,000 -2,600 Descending Miami Center
Mon 03:09:15 PM 27.4881 -79.3361 190° South 427 491 24,200 -1,500 Descending Miami Center
Mon 03:10:15 PM 27.3728 -79.3569 189° South 421 484 24,000 -99 Descending Miami Center
Mon 03:11:16 PM 27.2575 -79.3800 190° South 421 484 24,000  Level Miami Center
Mon 03:12:15 PM 27.1528 -79.4011 190° South 421 484 24,000  Level Miami Center
Mon 03:13:15 PM 27.0414 -79.4336 195° South 426 490 24,000  Level Miami Center
Mon 03:14:15 PM 26.9175 -79.4728 196° South 426 490 24,000 -900 Level Miami Center
Mon 03:15:15 PM 26.8042 -79.5075 195° South 426 490 22,200 -1,850 Descending Miami Center
Mon 03:16:15 PM 26.6928 -79.5378 194° South 415 478 20,300 -2,050 Descending Miami Center
Mon 03:17:15 PM 26.5917 -79.5889 204° Southwest 408 470 18,100 -2,050 Descending Miami Center
Mon 03:18:15 PM 26.5089 -79.6567 216° Southwest 399 459 16,200 -1,188 Descending Miami Center
Mon 03:18:56 PM 26.4744 -79.7183 238° Southwest 323 372 16,100 -100 Descending Miami Center
Mon 03:19:15 PM 26.4614 -79.7414 238° Southwest 342 394 16,100 -492 Level Miami Center
Mon 03:19:57 PM 26.4267 -79.7983 236° Southwest 293 337 15,600 -900 Descending Miami Center
Mon 03:20:15 PM 26.4181 -79.8167 242° Southwest 321 369 15,200 -1,574 Descending Miami Center
Mon 03:20:58 PM 26.3833 -79.8761 237° Southwest 293 337 14,000 -1,700 Descending Miami Center
Mon 03:21:15 PM 26.3683 -79.8919 223° Southwest 311 358 13,500 -1,377 Descending Miami Center
Mon 03:21:59 PM 26.3256 -79.9419 226° Southwest 294 338 12,600 -1,200 Descending Miami Center
Mon 03:22:15 PM 26.3108 -79.9556 220° Southwest 301 346 12,300 -1,377 Descending Miami Center
Mon 03:23:00 PM 26.2658 -80.0031 223° Southwest 286 329 11,200 -1,100 Descending Miami Center
Mon 03:23:15 PM 26.2531 -80.0164 223° Southwest 288 331 11,200 -1,180 Level Miami Center
Mon 03:24:01 PM 26.1900 -80.0333 194° South 290 334 10,000 -1,180 Descending Miami Center
Mon 03:24:16 PM 26.1817 -80.0331 178° South 281 323 10,000 -194 Level Miami Center
Mon 03:25:03 PM 26.1100 -80.0567 196° South 291 335 9,800 -944 Descending Miami Center
Mon 03:26:04 PM 26.0303 -80.0775 193° South 286 329 8,300 -818 Descending Miami Center
Mon 03:27:15 PM 25.9522 -80.1103 201° Southwest 291 335 8,000 -141 Descending Miami Center
Mon 03:28:12 PM 25.9108 -80.1922 241° Southwest 283 326 8,000 50 Level Miami Center
Mon 03:29:14 PM 25.9172 -80.2686 275° West 234 269 8,100 -615 Climbing Miami Center
Mon 03:30:09 PM 25.9325 -80.3314 285° West 229 264 6,800 -1,707 Descending Miami Center
Mon 03:31:10 PM 25.9308 -80.4053 269° West 228 262 4,800 -1,672 Descending Miami Center
Mon 03:32:11 PM 25.8881 -80.4478 222° Southwest 198 228 3,400 -1,220 Descending Miami Center
Mon 03:33:13 PM 25.8553 -80.4192 142° Southeast 144 166 2,300 -923 Descending Miami Center
Mon 03:34:08 PM 25.8353 -80.3817 121° Southeast 146 168 1,600 -764 Descending Miami Center

Login

Don't have an account? Register now (free) for customized features, flight alerts, and more!